Time;durP1;ratioP1;P1;durP2;ratioP2;P2;SDS_P1;SDS_P2;PMS_P1;PMS_P2;Temp;Humidity;BMP_temperature;BMP_pressure;BME280_temperature;BME280_humidity;BME280_pressure;Samples;Min_cycle;Max_cycle;Signal;HPM_P1;HPM_P2
2024/03/05 00:00:13;;;;;;;51.70;25.10;;;;;;;7.81;73.00;98324.45;105658;1253;97147;-78
2024/03/05 00:03:01;;;;;;;47.40;25.30;;;;;;;7.80;73.40;98328.75;105885;1251;110625;-78
2024/03/05 00:05:29;;;;;;;46.90;22.80;;;;;;;7.83;73.29;98333.52;105644;1251;96565;-76
2024/03/05 00:07:57;;;;;;;48.50;24.30;;;;;;;7.85;73.34;98336.53;105693;1254;107288;-77
2024/03/05 00:10:26;;;;;;;52.00;25.70;;;;;;;7.87;73.34;98340.77;105643;1254;97255;-77
2024/03/05 00:12:54;;;;;;;50.50;24.00;;;;;;;7.89;73.38;98344.50;107689;1255;96498;-76
2024/03/05 00:15:21;;;;;;;55.50;27.30;;;;;;;7.89;73.38;98342.37;105743;1254;110532;-75
2024/03/05 00:17:49;;;;;;;51.30;26.10;;;;;;;7.91;73.45;98345.06;105529;1254;97859;-76
2024/03/05 00:20:20;;;;;;;49.40;25.20;;;;;;;7.92;73.44;98342.03;105716;1254;107669;-76
2024/03/05 00:22:50;;;;;;;52.20;28.00;;;;;;;7.92;73.53;98341.14;105483;1257;96571;-78
2024/03/05 00:25:18;;;;;;;55.60;27.40;;;;;;;7.92;73.48;98346.28;105677;1254;96597;-77
2024/03/05 00:27:48;;;;;;;45.50;23.80;;;;;;;7.92;73.59;98343.63;105651;1253;110266;-76
2024/03/05 00:30:18;;;;;;;46.80;24.30;;;;;;;7.91;73.44;98339.58;105760;1253;97389;-76
2024/03/05 00:32:47;;;;;;;46.20;23.60;;;;;;;7.90;73.42;98331.04;108497;1251;107645;-76
2024/03/05 00:35:15;;;;;;;51.70;24.80;;;;;;;7.88;73.49;98332.05;105729;1254;96520;-78
2024/03/05 00:37:44;;;;;;;50.40;23.90;;;;;;;7.85;73.28;98326.65;105904;1254;96606;-77
2024/03/05 00:40:12;;;;;;;46.80;23.80;;;;;;;7.82;73.40;98326.14;105904;1254;109452;-79
2024/03/05 00:42:40;;;;;;;51.30;25.90;;;;;;;7.79;73.18;98331.08;105716;1254;96500;-77
2024/03/05 00:45:08;;;;;;;42.70;23.10;;;;;;;7.75;73.51;98333.71;105680;1256;106097;-77
2024/03/05 00:47:37;;;;;;;48.40;24.50;;;;;;;7.74;73.71;98340.09;105922;1253;96598;-77
2024/03/05 00:50:06;;;;;;;50.20;24.40;;;;;;;7.76;73.71;98341.73;105712;1254;96609;-77
2024/03/05 00:52:34;;;;;;;47.50;24.40;;;;;;;7.79;73.81;98338.92;105547;1253;107974;-74
2024/03/05 00:55:05;;;;;;;48.30;25.00;;;;;;;7.79;73.68;98331.66;105565;1252;96789;-77
2024/03/05 00:57:34;;;;;;;47.80;24.90;;;;;;;7.78;73.90;98340.01;105734;1254;107041;-77
2024/03/05 01:00:03;;;;;;;50.00;24.20;;;;;;;7.78;73.58;98335.27;105727;1251;97226;-78
2024/03/05 01:02:31;;;;;;;46.90;22.70;;;;;;;7.76;73.82;98334.34;106132;1253;96577;-76
2024/03/05 01:04:59;;;;;;;49.30;23.70;;;;;;;7.73;73.92;98329.92;105713;1253;110440;-78
2024/03/05 01:07:27;;;;;;;44.60;22.70;;;;;;;7.71;73.84;98335.41;105726;1255;96599;-79
2024/03/05 01:09:55;;;;;;;50.40;23.20;;;;;;;7.67;73.77;98332.14;105595;1257;107173;-77
2024/03/05 01:12:23;;;;;;;43.80;22.80;;;;;;;7.65;73.81;98332.53;105431;1257;96575;-76
2024/03/05 01:14:50;;;;;;;49.50;23.00;;;;;;;7.60;73.86;98338.27;105611;1257;96466;-76
2024/03/05 01:17:18;;;;;;;43.70;22.50;;;;;;;7.59;73.98;98339.94;105428;1254;109459;-75
2024/03/05 01:19:46;;;;;;;44.70;22.00;;;;;;;7.57;73.73;98341.64;106024;1253;96587;-76
2024/03/05 01:22:14;;;;;;;44.60;22.40;;;;;;;7.55;74.06;98349.41;105779;1251;107688;-79
2024/03/05 01:24:42;;;;;;;52.40;25.80;;;;;;;7.52;73.86;98343.79;105771;1253;96601;-77
2024/03/05 01:27:10;;;;;;;53.90;26.00;;;;;;;7.48;74.11;98338.08;105841;1254;96610;-79
2024/03/05 01:29:40;;;;;;;47.10;25.50;;;;;;;7.50;74.24;98339.86;105929;1253;109995;-77
2024/03/05 01:32:09;;;;;;;45.90;22.80;;;;;;;7.51;74.14;98338.61;105625;1254;96592;-76
2024/03/05 01:34:37;;;;;;;41.10;21.30;;;;;;;7.50;74.23;98332.70;105761;1254;107600;-79
2024/03/05 01:37:05;;;;;;;43.20;23.00;;;;;;;7.50;74.09;98336.34;105772;1253;96538;-78
2024/03/05 01:39:33;;;;;;;47.20;24.70;;;;;;;7.51;74.26;98336.80;105814;1253;96503;-77
2024/03/05 01:42:00;;;;;;;42.80;21.90;;;;;;;7.53;74.25;98338.78;105729;1255;109132;-78
2024/03/05 01:44:28;;;;;;;45.80;22.70;;;;;;;7.51;73.94;98328.71;105833;1250;96587;-78
2024/03/05 01:46:57;;;;;;;44.30;21.90;;;;;;;7.48;73.93;98330.16;105416;1254;107740;-77
2024/03/05 01:49:26;;;;;;;44.40;23.00;;;;;;;7.46;74.13;98331.36;105710;1256;96917;-76
2024/03/05 01:51:55;;;;;;;46.80;21.90;;;;;;;7.47;74.45;98333.38;105689;1253;96575;-76
2024/03/05 01:54:26;;;;;;;52.10;23.60;;;;;;;7.51;74.48;98337.52;105633;1251;109381;-76
2024/03/05 01:56:57;;;;;;;44.80;23.30;;;;;;;7.52;74.10;98332.52;105514;1257;96587;-76
2024/03/05 01:59:25;;;;;;;44.90;21.80;;;;;;;7.50;74.46;98327.21;105747;1251;106493;-77
2024/03/05 02:01:53;;;;;;;49.50;23.10;;;;;;;7.51;74.46;98318.85;105670;1256;97449;-78
2024/03/05 02:04:24;;;;;;;51.00;23.50;;;;;;;7.52;74.40;98324.02;105644;1255;96638;-77
2024/03/05 02:06:53;;;;;;;52.80;23.70;;;;;;;7.52;74.44;98320.32;105585;1254;109025;-77
2024/03/05 02:09:21;;;;;;;51.40;23.70;;;;;;;7.52;74.46;98317.69;105622;1254;97909;-76
2024/03/05 02:11:49;;;;;;;51.00;23.20;;;;;;;7.52;74.52;98317.89;105669;1254;107084;-77
2024/03/05 02:14:26;;;;;;;52.40;25.20;;;;;;;7.52;74.18;98315.23;105488;1255;96618;-78
2024/03/05 02:16:57;;;;;;;49.20;24.30;;;;;;;7.49;74.50;98321.13;105613;1255;97871;-76
2024/03/05 02:19:24;;;;;;;53.20;25.20;;;;;;;7.48;74.31;98318.86;105692;1254;110752;-77
2024/03/05 02:22:03;;;;;;;51.40;24.40;;;;;;;7.46;74.31;98322.38;105699;1253;96583;-77
2024/03/05 02:24:31;;;;;;;51.20;24.30;;;;;;;7.45;74.61;98331.03;105428;1257;106096;-75
2024/03/05 02:27:02;;;;;;;49.00;25.00;;;;;;;7.46;74.52;98331.69;105475;1254;96584;-77
2024/03/05 02:29:32;;;;;;;52.60;23.50;;;;;;;7.46;74.71;98339.80;105559;1254;97135;-78
2024/03/05 02:32:00;;;;;;;50.70;24.60;;;;;;;7.47;74.67;98349.47;105739;1256;109910;-77
2024/03/05 02:34:28;;;;;;;51.40;24.30;;;;;;;7.46;74.73;98354.11;105763;1254;96603;-77
2024/03/05 02:36:57;;;;;;;51.10;23.40;;;;;;;7.47;74.69;98355.29;105719;1267;106115;-77
2024/03/05 02:39:27;;;;;;;56.50;26.20;;;;;;;7.47;74.76;98363.73;105710;1253;96595;-78
2024/03/05 02:41:55;;;;;;;57.60;25.70;;;;;;;7.49;74.90;98361.87;105851;1251;96581;-78
2024/03/05 02:44:22;;;;;;;58.10;26.30;;;;;;;7.51;74.89;98367.17;105925;1254;110581;-77
2024/03/05 02:46:50;;;;;;;52.40;24.30;;;;;;;7.52;74.89;98370.44;105769;1251;96568;-76
2024/03/05 02:49:19;;;;;;;52.90;24.90;;;;;;;7.52;74.80;98373.99;105632;1254;107581;-77
2024/03/05 02:51:47;;;;;;;49.90;23.60;;;;;;;7.52;74.85;98383.16;105750;1254;96670;-77
2024/03/05 02:54:16;;;;;;;54.60;26.00;;;;;;;7.50;74.70;98386.25;105810;1254;96602;-76
2024/03/05 02:56:43;;;;;;;55.70;24.10;;;;;;;7.47;74.86;98390.95;105496;1251;109981;-77
2024/03/05 02:59:11;;;;;;;53.80;25.00;;;;;;;7.45;74.88;98397.95;105463;1254;97412;-77
2024/03/05 03:01:39;;;;;;;41.60;19.80;;;;;;;7.41;74.81;98401.19;105600;1253;107622;-77
2024/03/05 03:04:07;;;;;;;50.40;25.20;;;;;;;7.36;74.71;98405.27;105446;1254;96580;-78
2024/03/05 03:06:34;;;;;;;48.40;24.20;;;;;;;7.28;74.72;98405.79;105784;1251;96914;-78
2024/03/05 03:09:03;;;;;;;47.40;22.20;;;;;;;7.24;74.84;98405.04;105803;1254;109875;-78
2024/03/05 03:11:31;;;;;;;53.00;23.60;;;;;;;7.22;74.81;98402.14;105688;1254;96586;-78
2024/03/05 03:13:58;;;;;;;53.40;23.80;;;;;;;7.21;74.86;98401.04;105529;1253;107410;-77
2024/03/05 03:16:27;;;;;;;49.90;22.80;;;;;;;7.20;75.10;98403.20;105545;1254;96602;-78
2024/03/05 03:18:55;;;;;;;50.60;24.40;;;;;;;7.19;75.12;98409.61;105826;1255;96651;-76
2024/03/05 03:21:23;;;;;;;52.20;23.40;;;;;;;7.17;75.14;98409.04;105635;1251;109723;-77
2024/03/05 03:23:51;;;;;;;48.20;21.60;;;;;;;7.15;75.05;98406.67;105665;1254;96541;-77
2024/03/05 03:26:18;;;;;;;49.10;22.80;;;;;;;7.14;75.02;98407.09;105563;1255;108652;-78
2024/03/05 03:28:46;;;;;;;48.40;22.80;;;;;;;7.14;75.15;98410.15;105520;1256;96533;-77
2024/03/05 03:31:14;;;;;;;52.00;23.10;;;;;;;7.14;74.97;98406.92;105461;1256;96557;-77
2024/03/05 03:33:42;;;;;;;50.70;22.60;;;;;;;7.13;75.17;98404.73;105838;1253;109897;-77
2024/03/05 03:36:10;;;;;;;47.60;19.60;;;;;;;7.13;75.24;98409.08;105728;1253;96593;-75
2024/03/05 03:38:38;;;;;;;53.30;22.40;;;;;;;7.14;75.46;98408.34;105635;1253;107074;-75
2024/03/05 03:41:08;;;;;;;50.10;21.40;;;;;;;7.17;75.35;98411.70;105682;1254;97943;-77
2024/03/05 03:43:35;;;;;;;45.40;21.60;;;;;;;7.18;75.14;98411.44;105878;1253;96705;-78
2024/03/05 03:46:05;;;;;;;44.40;20.10;;;;;;;7.17;75.34;98413.46;105781;1251;110060;-76
2024/03/05 03:48:33;;;;;;;42.20;19.20;;;;;;;7.17;75.28;98413.95;105585;1254;96578;-76
2024/03/05 03:51:00;;;;;;;49.50;20.70;;;;;;;7.18;75.53;98421.12;105791;1257;106664;-77
2024/03/05 03:53:30;;;;;;;44.30;18.90;;;;;;;7.21;75.57;98428.32;105547;1254;96612;-77
2024/03/05 03:55:58;;;;;;;44.40;19.80;;;;;;;7.24;75.53;98434.98;105449;1254;96503;-77
2024/03/05 03:58:26;;;;;;;51.00;22.20;;;;;;;7.27;75.66;98435.50;105613;1254;109904;-77
2024/03/05 04:00:54;;;;;;;41.40;20.20;;;;;;;7.29;75.66;98432.55;105917;1250;96587;-77
2024/03/05 04:03:22;;;;;;;50.00;22.90;;;;;;;7.30;75.74;98436.17;105567;1254;105784;-77
2024/03/05 04:05:50;;;;;;;47.90;21.60;;;;;;;7.31;75.59;98434.52;105696;1257;98302;-78
2024/03/05 04:08:18;;;;;;;44.30;19.30;;;;;;;7.33;75.74;98437.73;105572;1255;97938;-77
2024/03/05 04:10:46;;;;;;;44.90;18.60;;;;;;;7.34;75.70;98439.45;105904;1254;109828;-77
2024/03/05 04:13:14;;;;;;;39.90;17.70;;;;;;;7.33;75.66;98438.80;106017;1255;96580;-77
2024/03/05 04:15:42;;;;;;;40.30;19.90;;;;;;;7.31;75.44;98438.40;105661;1263;107728;-79
2024/03/05 04:18:09;;;;;;;41.20;18.00;;;;;;;7.29;75.54;98437.85;105821;1255;96545;-77
2024/03/05 04:20:37;;;;;;;43.30;18.70;;;;;;;7.27;75.61;98441.65;105780;1253;96574;-78
2024/03/05 04:23:05;;;;;;;46.80;19.00;;;;;;;7.26;75.70;98438.90;105774;1257;109821;-77
2024/03/05 04:25:39;;;;;;;42.30;19.60;;;;;;;7.25;75.53;98441.98;105517;1257;96670;-77
2024/03/05 04:28:12;;;;;;;43.00;20.30;;;;;;;7.25;75.72;98446.23;105656;1257;107614;-78
2024/03/05 04:30:44;;;;;;;44.10;19.70;;;;;;;7.26;75.72;98443.54;105815;1254;96603;-78
2024/03/05 04:33:15;;;;;;;44.90;18.40;;;;;;;7.26;75.67;98442.80;105731;1253;96581;-76
2024/03/05 04:35:43;;;;;;;44.30;20.50;;;;;;;7.25;75.49;98444.31;105741;1260;109984;-77
2024/03/05 04:38:11;;;;;;;43.80;18.30;;;;;;;7.22;75.41;98444.16;105825;1254;97807;-78
2024/03/05 04:40:39;;;;;;;40.20;16.60;;;;;;;7.19;75.50;98447.33;105881;1255;107055;-78
2024/03/05 04:43:07;;;;;;;32.70;14.80;;;;;;;7.16;75.71;98446.52;106020;1263;97540;-77
2024/03/05 04:45:37;;;;;;;27.80;12.90;;;;;;;7.12;75.81;98446.61;105577;1254;96526;-78
2024/03/05 04:48:06;;;;;;;32.20;15.50;;;;;;;7.10;75.59;98445.70;105580;1253;109873;-77
2024/03/05 04:50:34;;;;;;;34.00;13.70;;;;;;;7.07;75.83;98446.95;105614;1253;96604;-77
2024/03/05 04:53:03;;;;;;;34.60;15.70;;;;;;;7.08;75.60;98444.42;105514;1257;107627;-77
2024/03/05 04:55:32;;;;;;;33.30;14.30;;;;;;;7.06;75.75;98448.38;105805;1253;96708;-77
2024/03/05 04:58:00;;;;;;;35.60;14.90;;;;;;;7.06;75.81;98448.42;105842;1254;96553;-77
2024/03/05 05:00:28;;;;;;;32.60;14.20;;;;;;;7.04;75.79;98449.92;105537;1254;108936;-69
2024/03/05 05:02:56;;;;;;;34.40;14.40;;;;;;;7.04;75.95;98455.59;105774;1256;97406;-71
2024/03/05 05:05:25;;;;;;;29.20;13.90;;;;;;;7.04;76.03;98457.88;105824;1257;107572;-73
2024/03/05 05:08:03;;;;;;;32.50;15.00;;;;;;;7.05;75.98;98461.72;105469;1251;96593;-72
2024/03/05 05:11:08;;;;;;;31.90;14.10;;;;;;;7.04;75.99;98462.45;105637;1251;96923;-79
2024/03/05 05:14:00;;;;;;;31.50;14.10;;;;;;;7.05;76.15;98464.88;105719;1253;109480;-68
2024/03/05 05:16:28;;;;;;;33.40;14.70;;;;;;;7.06;75.92;98464.48;105713;1256;96612;-70
2024/03/05 05:18:56;;;;;;;30.10;13.90;;;;;;;7.06;76.17;98464.98;105980;1256;108188;-69
2024/03/05 05:21:24;;;;;;;30.50;13.60;;;;;;;7.09;76.45;98471.30;105732;1256;96374;-71
2024/03/05 05:23:52;;;;;;;30.40;13.30;;;;;;;7.13;76.40;98476.14;105653;1254;96582;-70
2024/03/05 05:26:20;;;;;;;27.80;13.10;;;;;;;7.16;76.44;98478.93;105787;1256;109896;-70
2024/03/05 05:28:48;;;;;;;32.10;14.30;;;;;;;7.18;76.33;98478.83;106032;1254;96604;-70
2024/03/05 05:31:25;;;;;;;29.70;13.00;;;;;;;7.20;76.43;98482.55;108774;1251;107624;-69
2024/03/05 05:33:57;;;;;;;26.70;12.80;;;;;;;7.22;76.43;98492.27;106757;1250;96589;-69
2024/03/05 05:36:25;;;;;;;27.80;13.20;;;;;;;7.25;76.51;98497.71;105959;1250;96778;-69
2024/03/05 05:38:53;;;;;;;31.00;13.60;;;;;;;7.27;76.48;98493.73;105885;1257;109387;-69
2024/03/05 05:41:21;;;;;;;31.20;14.20;;;;;;;7.28;76.51;98496.30;105678;1254;97462;-70
2024/03/05 05:43:49;;;;;;;29.90;14.40;;;;;;;7.29;76.60;98496.55;106063;1253;107950;-69
2024/03/05 05:46:21;;;;;;;29.40;14.20;;;;;;;7.31;76.64;98503.66;105730;1256;96704;-69
2024/03/05 05:48:50;;;;;;;31.30;13.90;;;;;;;7.34;76.73;98506.86;105629;1254;97819;-69
2024/03/05 05:51:18;;;;;;;33.80;17.10;;;;;;;7.35;76.53;98510.42;105449;1253;111018;-68
2024/03/05 05:53:46;;;;;;;29.50;13.70;;;;;;;7.34;76.68;98512.27;105792;1253;96578;-73
2024/03/05 05:56:15;;;;;;;25.40;12.90;;;;;;;7.32;76.60;98508.75;105529;1256;107672;-75
2024/03/05 05:58:43;;;;;;;27.80;12.70;;;;;;;7.29;76.50;98511.35;105457;1251;96529;-71
2024/03/05 06:01:13;;;;;;;28.90;13.30;;;;;;;7.26;76.61;98513.37;105734;1254;96506;-73
2024/03/05 06:03:44;;;;;;;31.40;14.00;;;;;;;7.24;76.62;98516.31;105933;1254;109332;-74
2024/03/05 06:06:16;;;;;;;30.40;14.90;;;;;;;7.23;76.83;98518.84;105900;1254;96587;-75
2024/03/05 06:08:46;;;;;;;26.70;13.70;;;;;;;7.25;76.81;98516.57;105468;1263;107516;-73
2024/03/05 06:11:13;;;;;;;32.00;14.40;;;;;;;7.26;76.72;98514.41;105566;1265;96512;-72
2024/03/05 06:13:43;;;;;;;26.70;12.50;;;;;;;7.25;76.73;98520.14;105397;1257;96593;-73
2024/03/05 06:16:11;;;;;;;28.80;12.90;;;;;;;7.24;76.85;98520.72;105519;1256;110525;-71
2024/03/05 06:18:39;;;;;;;34.70;14.10;;;;;;;7.23;76.82;98523.40;105843;1251;96613;-78
2024/03/05 06:21:07;;;;;;;31.50;13.20;;;;;;;7.25;76.71;98526.47;105811;1254;106776;-70
2024/03/05 06:23:35;;;;;;;25.80;12.60;;;;;;;7.24;76.75;98528.84;105631;1257;97886;-71
2024/03/05 06:26:03;;;;;;;33.00;14.00;;;;;;;7.23;76.80;98533.16;105721;1253;97785;-72
2024/03/05 06:28:32;;;;;;;31.80;13.00;;;;;;;7.25;77.00;98537.42;105800;1249;109268;-71
2024/03/05 06:31:00;;;;;;;25.30;11.20;;;;;;;7.26;76.93;98538.73;105519;1263;96610;-71
2024/03/05 06:33:28;;;;;;;29.10;13.70;;;;;;;7.29;76.87;98535.04;105452;1266;106980;-72
2024/03/05 06:35:58;;;;;;;22.00;11.80;;;;;;;7.30;77.04;98535.48;105539;1257;96592;-71
2024/03/05 06:38:26;;;;;;;25.80;11.30;;;;;;;7.31;76.91;98539.64;105371;1257;96583;-72
2024/03/05 06:40:55;;;;;;;24.80;11.00;;;;;;;7.32;77.03;98538.36;105623;1253;110585;-73
2024/03/05 06:43:32;;;;;;;25.70;11.30;;;;;;;7.33;76.99;98532.08;105558;1251;96583;-70
2024/03/05 06:46:02;;;;;;;22.70;10.20;;;;;;;7.33;76.99;98526.83;105640;1265;107647;-73
2024/03/05 06:48:32;;;;;;;26.30;11.80;;;;;;;7.31;76.74;98530.33;105741;1259;97515;-76
2024/03/05 06:51:04;;;;;;;22.80;10.40;;;;;;;7.29;76.97;98537.16;105599;1253;96609;-74
2024/03/05 06:59:04;;;;;;;21.70;10.50;;;;;;;7.36;77.18;98547.93;105376;1258;107695;-72
2024/03/05 07:01:34;;;;;;;22.90;10.50;;;;;;;7.39;77.29;98548.84;106012;1263;97289;-72
2024/03/05 07:04:05;;;;;;;20.40;9.50;;;;;;;7.39;77.15;98554.78;105865;1250;96590;-72
2024/03/05 07:06:33;;;;;;;24.20;11.90;;;;;;;7.38;77.10;98552.20;105403;1251;110017;-72
2024/03/05 07:09:02;;;;;;;21.80;10.50;;;;;;;7.37;77.24;98556.69;105816;1263;96589;-73
2024/03/05 07:11:30;;;;;;;24.80;12.00;;;;;;;7.38;77.35;98556.63;105678;1258;107704;-72
2024/03/05 07:13:58;;;;;;;27.30;11.00;;;;;;;7.40;77.27;98560.41;105685;1257;96733;-75
2024/03/05 07:16:26;;;;;;;24.20;11.00;;;;;;;7.40;77.28;98561.95;105505;1257;96542;-72
2024/03/05 07:18:54;;;;;;;31.50;18.20;;;;;;;7.40;77.27;98565.33;105712;1253;109999;-73
2024/03/05 07:21:23;;;;;;;23.80;12.40;;;;;;;7.42;77.27;98567.46;105784;1251;96641;-79
2024/03/05 07:23:52;;;;;;;24.10;11.60;;;;;;;7.41;77.02;98569.85;105646;1251;108892;-72
2024/03/05 07:26:23;;;;;;;21.50;11.40;;;;;;;7.38;77.20;98565.96;105679;1254;98011;-80
2024/03/05 07:28:52;;;;;;;22.50;11.50;;;;;;;7.38;77.19;98573.91;106059;1263;96590;-71
2024/03/05 07:31:20;;;;;;;19.50;10.50;;;;;;;7.37;77.17;98570.11;105921;1251;109875;-77
2024/03/05 07:33:48;;;;;;;22.50;10.30;;;;;;;7.34;77.05;98571.20;105627;1263;96561;-72
2024/03/05 07:36:21;;;;;;;21.30;9.70;;;;;;;7.32;77.23;98573.11;105773;1254;107648;-72
2024/03/05 07:38:49;;;;;;;19.80;10.50;;;;;;;7.30;77.16;98578.19;105649;1256;97796;-74
2024/03/05 07:41:17;;;;;;;22.20;10.30;;;;;;;7.26;77.11;98577.70;105669;1253;96600;-74
2024/03/05 07:44:02;;;;;;;21.20;10.20;;;;;;;7.28;77.19;98581.14;105642;1254;109481;-72
2024/03/05 07:46:33;;;;;;;25.80;11.50;;;;;;;7.28;77.22;98585.01;105826;1255;96648;-71
2024/03/05 07:49:02;;;;;;;23.20;10.90;;;;;;;7.27;77.22;98583.09;105695;1253;108795;-71
2024/03/05 07:51:30;;;;;;;24.20;11.00;;;;;;;7.28;77.31;98583.05;105624;1263;96613;-71
2024/03/05 07:54:12;;;;;;;21.30;11.40;;;;;;;7.29;77.36;98588.13;105365;1250;96602;-71
2024/03/05 07:56:41;;;;;;;18.90;10.00;;;;;;;7.27;77.32;98591.41;105553;1257;108528;-72
2024/03/05 07:59:09;;;;;;;20.60;10.30;;;;;;;7.26;77.35;98592.70;106066;1254;97829;-74
2024/03/05 08:01:37;;;;;;;18.10;9.90;;;;;;;7.26;77.46;98595.88;105800;1254;106734;-71
2024/03/05 08:04:05;;;;;;;19.60;9.90;;;;;;;7.27;77.39;98596.53;105673;1254;96579;-74
2024/03/05 08:06:33;;;;;;;19.90;10.20;;;;;;;7.29;77.54;98601.71;105703;1251;96561;-72
2024/03/05 08:09:03;;;;;;;21.70;11.10;;;;;;;7.31;77.48;98596.60;105411;1262;109386;-72
2024/03/05 08:11:32;;;;;;;20.90;9.80;;;;;;;7.34;77.67;98599.22;105401;1265;96635;-76
2024/03/05 08:14:03;;;;;;;19.60;10.10;;;;;;;7.37;77.55;98600.98;105469;1253;107337;-74
2024/03/05 08:16:33;;;;;;;22.00;11.30;;;;;;;7.38;77.59;98601.77;105579;1253;96608;-75
2024/03/05 08:19:04;;;;;;;21.80;10.50;;;;;;;7.40;77.60;98602.71;105493;1253;97785;-73
2024/03/05 08:21:34;;;;;;;21.20;10.80;;;;;;;7.41;77.55;98606.20;105797;1253;108926;-73
2024/03/05 08:24:03;;;;;;;21.30;10.50;;;;;;;7.42;77.63;98607.55;105672;1254;97413;-73
2024/03/05 08:26:31;;;;;;;19.60;10.50;;;;;;;7.43;77.56;98608.71;105485;1256;108725;-71
2024/03/05 08:28:59;;;;;;;23.40;11.60;;;;;;;7.42;77.56;98612.47;105361;1264;97804;-73
2024/03/05 08:31:26;;;;;;;22.50;11.30;;;;;;;7.41;77.49;98613.06;105799;1253;96609;-72
2024/03/05 08:33:54;;;;;;;21.20;11.70;;;;;;;7.42;77.60;98614.23;105562;1263;109442;-72
2024/03/05 08:36:25;;;;;;;21.80;11.10;;;;;;;7.43;77.57;98617.30;105756;1253;97213;-71
2024/03/05 08:38:53;;;;;;;22.50;11.20;;;;;;;7.46;77.65;98619.95;105733;1253;107196;-72
2024/03/05 08:41:21;;;;;;;22.70;11.00;;;;;;;7.47;77.50;98619.76;105729;1256;96705;-72
2024/03/05 08:43:49;;;;;;;23.70;11.30;;;;;;;7.45;77.59;98625.16;105649;1254;96691;-76
2024/03/05 08:46:17;;;;;;;19.90;10.80;;;;;;;7.48;77.74;98626.05;105645;1251;109639;-71
2024/03/05 08:48:45;;;;;;;20.50;10.50;;;;;;;7.50;77.63;98624.48;105642;1254;96576;-73
2024/03/05 08:51:13;;;;;;;22.50;11.60;;;;;;;7.50;77.59;98625.52;105691;1257;107578;-73
2024/03/05 08:53:41;;;;;;;22.50;12.90;;;;;;;7.51;77.72;98628.07;107191;1249;97629;-71
2024/03/05 08:56:09;;;;;;;20.20;11.20;;;;;;;7.53;77.76;98629.59;105842;1252;96562;-72
2024/03/05 08:58:37;;;;;;;20.60;11.00;;;;;;;7.56;77.81;98626.36;105705;1253;109507;-71
2024/03/05 09:01:06;;;;;;;19.60;10.10;;;;;;;7.59;77.70;98628.63;105371;1261;97512;-74
2024/03/05 09:03:35;;;;;;;28.70;15.40;;;;;;;7.64;77.75;98632.23;105714;1256;107184;-72
2024/03/05 09:06:05;;;;;;;20.00;12.40;;;;;;;7.70;77.90;98635.33;105936;1254;96589;-71
2024/03/05 09:08:33;;;;;;;22.20;11.80;;;;;;;7.74;78.00;98641.37;105744;1251;96593;-72
2024/03/05 09:11:00;;;;;;;24.90;13.60;;;;;;;7.77;77.85;98645.10;105654;1253;109839;-76
2024/03/05 09:13:28;;;;;;;26.20;13.30;;;;;;;7.79;77.97;98644.42;105522;1260;98018;-76
2024/03/05 09:15:57;;;;;;;22.90;12.50;;;;;;;7.81;77.94;98653.83;105613;1254;107168;-73
2024/03/05 09:18:25;;;;;;;22.10;13.20;;;;;;;7.83;77.89;98653.70;105548;1257;97549;-77
2024/03/05 09:20:54;;;;;;;20.90;11.30;;;;;;;7.85;77.98;98654.56;105813;1251;96975;-77
2024/03/05 09:23:22;;;;;;;21.30;11.80;;;;;;;7.90;77.98;98663.80;105778;1253;109836;-74
2024/03/05 09:25:50;;;;;;;23.40;11.20;;;;;;;7.92;77.99;98666.66;105750;1258;96592;-72
2024/03/05 09:28:18;;;;;;;22.80;13.40;;;;;;;7.92;77.94;98667.59;105567;1254;109521;-72
2024/03/05 09:30:47;;;;;;;26.10;12.70;;;;;;;7.89;77.95;98669.66;105531;1251;96591;-70
2024/03/05 09:33:15;;;;;;;26.10;13.80;;;;;;;7.83;77.87;98668.46;105825;1250;97873;-73
2024/03/05 09:35:43;;;;;;;24.10;13.20;;;;;;;7.81;77.81;98670.05;105561;1254;109677;-73
2024/03/05 09:38:13;;;;;;;24.90;14.00;;;;;;;7.80;77.89;98670.66;105600;1264;97383;-73
2024/03/05 09:40:43;;;;;;;21.50;12.50;;;;;;;7.77;77.98;98669.64;105814;1253;107348;-72
2024/03/05 09:43:13;;;;;;;33.60;23.60;;;;;;;7.73;77.95;98674.59;105736;1264;97170;-72
2024/03/05 09:45:44;;;;;;;21.30;12.60;;;;;;;7.74;77.95;98672.27;105551;1254;96596;-79
2024/03/05 09:48:17;;;;;;;23.60;13.30;;;;;;;7.76;77.95;98675.14;105779;1254;109478;-71
2024/03/05 09:50:49;;;;;;;23.50;13.80;;;;;;;7.78;78.07;98670.64;105689;1255;96603;-72
2024/03/05 09:53:18;;;;;;;24.30;13.50;;;;;;;7.81;78.24;98675.02;105603;1254;108042;-77
2024/03/05 09:55:51;;;;;;;21.30;13.30;;;;;;;7.85;78.28;98675.55;105709;1256;96657;-72
2024/03/05 09:58:41;;;;;;;23.40;13.50;;;;;;;7.92;78.21;98679.19;105744;1253;97560;-74
2024/03/05 10:01:10;;;;;;;23.80;13.20;;;;;;;8.00;78.28;98680.58;105652;1254;110964;-72
2024/03/05 10:03:40;;;;;;;26.10;13.80;;;;;;;8.04;78.08;98682.06;105442;1265;97792;-77
2024/03/05 10:06:11;;;;;;;24.10;13.10;;;;;;;8.04;78.13;98684.71;105676;1251;107326;-73
2024/03/05 10:08:40;;;;;;;21.50;13.90;;;;;;;8.08;78.23;98687.14;105672;1250;96581;-78
2024/03/05 10:11:08;;;;;;;23.00;13.70;;;;;;;8.11;78.13;98690.42;105764;1256;97694;-72
2024/03/05 10:13:37;;;;;;;21.40;12.10;;;;;;;8.13;77.98;98692.77;105904;1251;109089;-71
2024/03/05 10:16:18;;;;;;;25.30;14.40;;;;;;;8.16;78.20;98695.05;105853;1253;96589;-73
2024/03/05 10:18:47;;;;;;;25.60;16.60;;;;;;;8.17;78.16;98697.64;105839;1253;107063;-72
2024/03/05 10:21:18;;;;;;;30.70;17.60;;;;;;;8.19;78.25;98700.31;105763;1263;96674;-78
2024/03/05 10:23:49;;;;;;;26.80;13.80;;;;;;;8.20;78.27;98700.77;105648;1255;96677;-72
2024/03/05 10:26:21;;;;;;;22.80;14.00;;;;;;;8.25;78.23;98700.47;105601;1251;108798;-72
2024/03/05 10:28:51;;;;;;;24.80;13.90;;;;;;;8.26;78.17;98698.09;105451;1254;96557;-71
2024/03/05 10:31:25;;;;;;;36.50;22.90;;;;;;;8.27;78.21;98701.02;105543;1256;106536;-76
2024/03/05 10:33:56;;;;;;;27.10;15.80;;;;;;;8.32;78.29;98698.05;105767;1258;97205;-73
2024/03/05 10:36:24;;;;;;;23.00;13.50;;;;;;;8.34;78.37;98704.19;105638;1258;96573;-73
2024/03/05 10:38:53;;;;;;;23.70;14.60;;;;;;;8.38;78.18;98704.51;105629;1251;109349;-73
2024/03/05 10:41:29;;;;;;;21.90;13.60;;;;;;;8.40;78.24;98708.28;105313;1251;96683;-80
2024/03/05 10:44:14;;;;;;;22.50;12.80;;;;;;;8.41;78.20;98713.45;105439;1257;106866;-75
2024/03/05 10:46:43;;;;;;;24.20;15.70;;;;;;;8.40;78.22;98713.70;105570;1251;96586;-71
2024/03/05 10:49:13;;;;;;;21.60;13.70;;;;;;;8.41;78.24;98720.75;105784;1251;96536;-70
2024/03/05 10:51:43;;;;;;;21.30;12.50;;;;;;;8.41;78.20;98717.20;105669;1251;109327;-72
2024/03/05 10:54:11;;;;;;;20.90;12.40;;;;;;;8.42;78.38;98722.08;105522;1254;96701;-72
2024/03/05 10:56:39;;;;;;;24.10;14.80;;;;;;;8.43;78.22;98720.94;105820;1253;105895;-71
2024/03/05 10:59:58;;;;;;;30.90;15.70;;;;;;;8.45;78.26;98723.13;105693;1257;96500;-71
2024/03/05 11:03:41;;;;;;;26.50;15.50;;;;;;;8.43;78.23;98724.64;102224;1293;635414;-73
2024/03/05 11:06:09;;;;;;;20.40;13.10;;;;;;;8.41;78.22;98722.68;104602;1267;94962;-71
2024/03/05 11:08:37;;;;;;;23.00;14.40;;;;;;;8.41;78.15;98722.34;104831;1264;94248;-73
2024/03/05 11:11:23;;;;;;;88.30;33.50;;;;;;;8.38;78.17;98725.00;104798;1266;107215;-73
2024/03/05 11:13:53;;;;;;;31.30;17.90;;;;;;;8.35;78.17;98723.64;104726;1263;95471;-76
2024/03/05 11:16:21;;;;;;;27.90;17.60;;;;;;;8.33;78.30;98722.52;103520;1266;2350434;-80
2024/03/05 11:18:51;;;;;;;24.20;14.10;;;;;;;8.35;78.31;98720.80;105134;1259;94405;-73
2024/03/05 11:21:22;;;;;;;19.70;13.10;;;;;;;8.36;78.30;98722.99;105141;1262;94295;-72
2024/03/05 11:23:53;;;;;;;20.90;13.70;;;;;;;8.38;78.23;98725.55;105458;1256;107528;-70
2024/03/05 11:26:24;;;;;;;21.50;13.30;;;;;;;8.39;78.26;98728.83;105318;1253;95221;-72
2024/03/05 11:29:23;;;;;;;21.50;14.60;;;;;;;8.39;78.24;98727.94;105548;1254;107583;-72
2024/03/05 11:31:53;;;;;;;21.50;13.70;;;;;;;8.41;78.40;98734.69;105444;1258;95244;-71